createdAt,value
2016-12-14T00:00:10.833Z,0
2016-12-14T00:01:10.669Z,0
2016-12-14T00:02:10.883Z,0
2016-12-14T00:03:12.825Z,0
2016-12-14T00:04:10.761Z,0
2016-12-14T00:05:10.729Z,0
2016-12-14T00:06:10.731Z,0
2016-12-14T00:07:10.915Z,0
2016-12-14T00:08:10.746Z,0
2016-12-14T00:09:11.007Z,0
2016-12-14T00:10:10.989Z,0
2016-12-14T00:11:10.850Z,0
2016-12-14T00:12:10.706Z,0
2016-12-14T00:13:13.508Z,0
2016-12-14T00:14:10.836Z,0
2016-12-14T00:15:10.676Z,0
2016-12-14T00:16:10.947Z,0
2016-12-14T00:17:10.685Z,0
2016-12-14T00:18:11.026Z,0
2016-12-14T00:19:10.687Z,0
2016-12-14T00:20:10.898Z,0
2016-12-14T00:21:10.717Z,0
2016-12-14T00:22:11.046Z,0
2016-12-14T00:23:10.714Z,0
2016-12-14T00:24:12.421Z,0
2016-12-14T00:25:10.694Z,0
2016-12-14T00:26:10.805Z,0
2016-12-14T00:27:10.711Z,0
2016-12-14T00:28:10.716Z,0
2016-12-14T00:29:10.733Z,0
2016-12-14T00:30:10.846Z,0
2016-12-14T00:31:10.755Z,0
2016-12-14T00:32:10.836Z,0
2016-12-14T00:33:10.728Z,0
2016-12-14T00:34:10.969Z,0
2016-12-14T00:35:10.704Z,0
2016-12-14T00:36:10.791Z,0
2016-12-14T00:37:10.790Z,0
2016-12-14T00:38:10.994Z,0
2016-12-14T00:39:10.745Z,0
2016-12-14T00:40:10.846Z,0
2016-12-14T00:41:10.740Z,0
2016-12-14T00:42:10.897Z,0
2016-12-14T00:43:10.645Z,0
2016-12-14T00:44:10.965Z,0
2016-12-14T00:45:10.685Z,0
2016-12-14T00:46:10.907Z,0
2016-12-14T00:47:10.618Z,0
2016-12-14T00:48:10.792Z,0
2016-12-14T00:49:10.622Z,0
2016-12-14T00:50:10.655Z,0
2016-12-14T00:51:10.736Z,0
2016-12-14T00:52:10.789Z,0
2016-12-14T00:53:10.717Z,0
2016-12-14T00:54:10.816Z,0
2016-12-14T00:55:10.639Z,0
2016-12-14T00:56:10.772Z,0
2016-12-14T00:57:10.686Z,0
2016-12-14T00:58:10.956Z,0
2016-12-14T00:59:10.800Z,0
2016-12-14T01:00:10.802Z,0
2016-12-14T01:01:10.756Z,0
2016-12-14T01:02:10.800Z,0
2016-12-14T01:03:10.693Z,0
2016-12-14T01:04:10.770Z,0
2016-12-14T01:05:10.721Z,0
2016-12-14T01:06:10.836Z,0
2016-12-14T01:07:10.759Z,0
2016-12-14T01:08:10.880Z,0
2016-12-14T01:09:10.714Z,0
2016-12-14T01:10:10.695Z,0
2016-12-14T01:11:11.746Z,0
2016-12-14T01:12:10.863Z,0
2016-12-14T01:13:10.689Z,0
2016-12-14T01:14:10.880Z,0
2016-12-14T01:15:10.767Z,0
2016-12-14T01:16:10.735Z,0
2016-12-14T01:17:10.717Z,0
2016-12-14T01:18:10.969Z,0
2016-12-14T01:19:10.917Z,0
2016-12-14T01:20:10.911Z,0
2016-12-14T01:21:10.752Z,0
2016-12-14T01:22:10.819Z,0
2016-12-14T01:23:10.687Z,0
2016-12-14T01:24:10.982Z,0
2016-12-14T01:25:10.816Z,0
2016-12-14T01:26:10.965Z,0
2016-12-14T01:27:10.701Z,0
2016-12-14T01:28:11.404Z,0
2016-12-14T01:29:10.801Z,0
2016-12-14T01:30:10.865Z,0
2016-12-14T01:31:10.715Z,0
2016-12-14T01:32:10.876Z,0
2016-12-14T01:33:10.726Z,0
2016-12-14T01:34:10.887Z,0
2016-12-14T01:35:10.721Z,0
2016-12-14T01:36:20.812Z,0
2016-12-14T01:37:10.683Z,0
2016-12-14T01:38:11.068Z,0
2016-12-14T01:39:10.775Z,0
2016-12-14T01:40:10.922Z,0
2016-12-14T01:41:10.705Z,0
2016-12-14T01:42:10.947Z,0
2016-12-14T01:43:10.723Z,0
2016-12-14T01:44:10.934Z,0
2016-12-14T01:45:10.711Z,0
2016-12-14T01:46:11.806Z,0
2016-12-14T01:47:10.724Z,0
2016-12-14T01:48:11.155Z,0
2016-12-14T01:49:11.208Z,0
2016-12-14T01:50:11.275Z,0
2016-12-14T01:51:11.128Z,0
2016-12-14T01:52:11.288Z,0
2016-12-14T01:53:11.319Z,0
2016-12-14T01:54:11.271Z,0
2016-12-14T01:55:10.743Z,0
2016-12-14T01:56:14.714Z,0
2016-12-14T01:57:15.822Z,0
2016-12-14T01:58:10.805Z,0
2016-12-14T01:59:10.871Z,0
2016-12-14T02:00:10.852Z,0
2016-12-14T02:01:10.727Z,0
2016-12-14T02:02:10.816Z,0
2016-12-14T02:03:10.942Z,0
2016-12-14T02:04:10.845Z,0
2016-12-14T02:05:10.812Z,0
2016-12-14T02:06:10.985Z,0
2016-12-14T02:07:10.812Z,0
2016-12-14T02:08:10.964Z,0
2016-12-14T02:09:10.777Z,0
2016-12-14T02:10:10.835Z,0
2016-12-14T02:11:10.802Z,0
2016-12-14T02:12:10.921Z,0
2016-12-14T02:13:10.750Z,0
2016-12-14T02:14:10.795Z,0
2016-12-14T02:15:11.965Z,0
2016-12-14T02:16:11.007Z,0
2016-12-14T02:17:10.841Z,0
2016-12-14T02:18:10.938Z,0
2016-12-14T02:19:10.843Z,0
2016-12-14T02:20:10.884Z,0
2016-12-14T02:21:10.810Z,0
2016-12-14T02:22:10.890Z,0
2016-12-14T02:23:10.923Z,0
2016-12-14T02:24:10.902Z,0
2016-12-14T02:25:10.797Z,0
2016-12-14T02:26:10.870Z,0
2016-12-14T02:27:10.937Z,0
2016-12-14T02:28:10.836Z,0
2016-12-14T02:29:10.819Z,0
2016-12-14T02:30:11.034Z,0
2016-12-14T02:31:11.850Z,0
2016-12-14T02:32:10.916Z,0
2016-12-14T02:33:10.885Z,0
2016-12-14T02:34:10.926Z,0
2016-12-14T02:35:10.915Z,0
2016-12-14T02:36:11.556Z,0
2016-12-14T02:37:10.760Z,0
2016-12-14T02:38:10.955Z,0
2016-12-14T02:39:10.822Z,0
2016-12-14T02:40:10.910Z,0
2016-12-14T02:41:11.007Z,0
2016-12-14T02:42:11.058Z,0
2016-12-14T02:43:10.851Z,0
2016-12-14T02:44:11.095Z,0
2016-12-14T02:45:10.802Z,0
2016-12-14T02:46:10.815Z,0
2016-12-14T02:47:10.764Z,0
2016-12-14T02:48:11.045Z,0
2016-12-14T02:49:10.785Z,0
2016-12-14T02:50:10.888Z,0
2016-12-14T02:51:10.765Z,0
2016-12-14T02:52:10.935Z,0
2016-12-14T02:53:10.810Z,0
2016-12-14T02:54:10.842Z,0
2016-12-14T02:55:10.794Z,0
2016-12-14T02:56:11.095Z,0
2016-12-14T02:57:10.893Z,0
2016-12-14T02:58:10.974Z,0
2016-12-14T02:59:10.867Z,0
2016-12-14T03:00:10.986Z,0
2016-12-14T03:01:10.818Z,0
2016-12-14T03:02:10.918Z,0
2016-12-14T03:03:10.798Z,0
2016-12-14T03:04:10.902Z,0
2016-12-14T03:05:10.791Z,0
2016-12-14T03:06:10.942Z,0
2016-12-14T03:07:10.803Z,0
2016-12-14T03:08:10.907Z,0
2016-12-14T03:09:11.016Z,0
2016-12-14T03:10:10.881Z,0
2016-12-14T03:11:10.864Z,0
2016-12-14T03:12:10.933Z,0
2016-12-14T03:13:10.778Z,0
2016-12-14T03:14:11.035Z,0
2016-12-14T03:15:10.897Z,0
2016-12-14T03:16:10.966Z,0
2016-12-14T03:17:10.864Z,0
2016-12-14T03:18:11.034Z,0
2016-12-14T03:19:10.834Z,0
2016-12-14T03:20:11.035Z,0
2016-12-14T03:21:10.789Z,0
2016-12-14T03:22:10.992Z,0
2016-12-14T03:23:10.864Z,0
2016-12-14T03:24:11.030Z,0
2016-12-14T03:25:10.922Z,0
2016-12-14T03:26:10.938Z,0
2016-12-14T03:27:10.946Z,0
2016-12-14T03:28:10.993Z,0
2016-12-14T03:29:11.009Z,0
2016-12-14T03:30:11.184Z,0
2016-12-14T03:31:10.917Z,0
2016-12-14T03:32:11.184Z,0
2016-12-14T03:33:10.930Z,0
2016-12-14T03:34:11.050Z,0
2016-12-14T03:35:10.880Z,0
2016-12-14T03:36:11.013Z,0
2016-12-14T03:37:11.009Z,0
2016-12-14T03:38:10.922Z,0
2016-12-14T03:39:10.869Z,0
2016-12-14T03:40:11.167Z,0
2016-12-14T03:41:10.882Z,0
2016-12-14T03:42:10.963Z,0
2016-12-14T03:43:10.860Z,0
2016-12-14T03:44:11.086Z,0
2016-12-14T03:45:10.873Z,0
2016-12-14T03:46:11.012Z,0
2016-12-14T03:47:11.010Z,0
2016-12-14T03:48:11.111Z,0
2016-12-14T03:49:10.908Z,0
2016-12-14T03:50:10.949Z,0
2016-12-14T03:51:11.040Z,0
2016-12-14T03:52:11.073Z,0
2016-12-14T03:53:10.834Z,0
2016-12-14T03:54:10.954Z,0
2016-12-14T03:55:10.829Z,0
2016-12-14T03:56:10.940Z,0
2016-12-14T03:57:10.884Z,0
2016-12-14T03:58:11.153Z,0
2016-12-14T03:59:10.950Z,0
2016-12-14T04:00:10.973Z,0
2016-12-14T04:01:11.024Z,0
2016-12-14T04:02:11.103Z,0
2016-12-14T04:03:10.979Z,0
2016-12-14T04:04:11.254Z,0
2016-12-14T04:05:10.921Z,0
2016-12-14T04:06:11.144Z,0
2016-12-14T04:07:10.898Z,0
2016-12-14T04:08:11.145Z,0
2016-12-14T04:09:10.970Z,0
2016-12-14T04:10:11.157Z,0
2016-12-14T04:11:10.919Z,0
2016-12-14T04:12:11.124Z,0
2016-12-14T04:13:11.003Z,0
2016-12-14T04:14:11.022Z,0
2016-12-14T04:15:11.009Z,0
2016-12-14T04:16:11.141Z,0
2016-12-14T04:17:11.034Z,0
2016-12-14T04:18:11.042Z,0
2016-12-14T04:19:10.989Z,0
2016-12-14T04:20:11.015Z,0
2016-12-14T04:21:11.049Z,0
2016-12-14T04:22:11.187Z,0
2016-12-14T04:23:11.694Z,0
2016-12-14T04:24:11.154Z,0
2016-12-14T04:25:11.046Z,0
2016-12-14T04:26:10.972Z,0
2016-12-14T04:27:10.935Z,0
2016-12-14T04:28:11.121Z,0
2016-12-14T04:29:11.034Z,0
2016-12-14T04:30:11.071Z,0
2016-12-14T04:31:10.946Z,0
2016-12-14T04:32:10.972Z,0
2016-12-14T04:33:11.097Z,0
2016-12-14T04:34:11.254Z,0
2016-12-14T04:35:11.014Z,0
2016-12-14T04:36:11.053Z,0
2016-12-14T04:37:11.044Z,0
2016-12-14T04:38:11.132Z,0
2016-12-14T04:39:11.535Z,0
2016-12-14T04:40:11.006Z,0
2016-12-14T04:41:11.055Z,0
2016-12-14T04:42:11.014Z,0
2016-12-14T04:43:11.096Z,0
2016-12-14T04:44:11.404Z,0
2016-12-14T04:45:11.054Z,0
2016-12-14T04:46:11.153Z,0
2016-12-14T04:47:11.078Z,0
2016-12-14T04:48:11.254Z,0
2016-12-14T04:49:10.970Z,0
2016-12-14T04:50:11.012Z,0
2016-12-14T04:51:10.947Z,0
2016-12-14T04:52:11.118Z,0
2016-12-14T04:53:11.133Z,0
2016-12-14T04:54:11.243Z,0
2016-12-14T04:55:10.933Z,0
2016-12-14T04:56:11.185Z,0
2016-12-14T04:57:11.058Z,0
2016-12-14T04:58:11.407Z,0
2016-12-14T04:59:13.236Z,0
2016-12-14T05:00:11.122Z,0
2016-12-14T05:01:10.955Z,0
2016-12-14T05:02:11.176Z,0
2016-12-14T05:03:11.075Z,0
2016-12-14T05:04:11.104Z,0
2016-12-14T05:05:10.970Z,0
2016-12-14T05:06:11.045Z,0
2016-12-14T05:07:11.076Z,0
2016-12-14T05:08:11.275Z,0
2016-12-14T05:09:11.205Z,0
2016-12-14T05:10:11.113Z,0
2016-12-14T05:11:11.227Z,0
2016-12-14T05:12:11.196Z,0
2016-12-14T05:13:10.961Z,0
2016-12-14T05:14:11.516Z,0
2016-12-14T05:15:11.145Z,0
2016-12-14T05:16:11.261Z,0
2016-12-14T05:17:11.134Z,0
2016-12-14T05:18:11.183Z,0
2016-12-14T05:19:11.206Z,0
2016-12-14T05:20:11.124Z,0
2016-12-14T05:21:12.289Z,0
2016-12-14T05:22:16.254Z,0
2016-12-14T05:23:14.095Z,0
2016-12-14T05:24:12.523Z,0
2016-12-14T05:25:13.303Z,0
2016-12-14T05:26:13.813Z,0
2016-12-14T05:27:15.485Z,0
2016-12-14T05:28:14.977Z,0
2016-12-14T05:29:14.963Z,0
2016-12-14T05:30:13.250Z,0
2016-12-14T05:31:11.005Z,0
2016-12-14T05:32:11.019Z,0
2016-12-14T05:33:11.237Z,0
2016-12-14T05:34:11.045Z,0
2016-12-14T05:35:11.308Z,0
2016-12-14T05:36:11.084Z,0
2016-12-14T05:37:11.000Z,0
2016-12-14T05:38:11.174Z,0
2016-12-14T05:39:11.159Z,0
2016-12-14T05:40:11.074Z,0
2016-12-14T05:41:11.095Z,0
2016-12-14T05:42:11.185Z,0
2016-12-14T05:43:11.164Z,0
2016-12-14T05:44:11.101Z,0
2016-12-14T05:45:11.108Z,0
2016-12-14T05:46:11.244Z,0
2016-12-14T05:47:11.072Z,0
2016-12-14T05:48:15.141Z,0
2016-12-14T05:49:13.390Z,0
2016-12-14T05:50:12.919Z,0
2016-12-14T05:51:13.957Z,0
2016-12-14T05:52:12.545Z,0
2016-12-14T05:53:12.422Z,0
2016-12-14T05:54:12.954Z,0
2016-12-14T05:55:13.266Z,0
2016-12-14T05:56:12.964Z,0
2016-12-14T05:57:15.543Z,0
2016-12-14T05:58:12.516Z,0
2016-12-14T05:59:12.489Z,0
2016-12-14T06:00:13.024Z,0
2016-12-14T06:01:11.698Z,0
2016-12-14T06:02:13.265Z,0
2016-12-14T06:03:12.418Z,0
2016-12-14T06:04:13.645Z,0
2016-12-14T06:05:12.173Z,0
2016-12-14T06:06:12.036Z,0
2016-12-14T06:07:13.837Z,0
2016-12-14T06:08:13.342Z,0
2016-12-14T06:09:14.433Z,0
2016-12-14T06:10:15.821Z,0
2016-12-14T06:11:11.294Z,0
2016-12-14T06:12:12.645Z,0
2016-12-14T06:13:11.269Z,0
2016-12-14T06:14:11.362Z,0
2016-12-14T06:15:11.184Z,0
2016-12-14T06:16:11.272Z,0
2016-12-14T06:17:11.120Z,0
2016-12-14T06:18:11.275Z,0
2016-12-14T06:19:11.137Z,0
2016-12-14T06:20:11.269Z,0
2016-12-14T06:21:11.224Z,0
2016-12-14T06:22:11.266Z,0
2016-12-14T06:23:11.143Z,0
2016-12-14T06:24:11.212Z,0
2016-12-14T06:25:11.155Z,0
2016-12-14T06:26:11.244Z,0
2016-12-14T06:27:11.275Z,0
2016-12-14T06:28:11.387Z,0
2016-12-14T06:29:11.173Z,0
2016-12-14T06:30:11.307Z,0
2016-12-14T06:31:11.251Z,0
2016-12-14T06:32:11.404Z,0
2016-12-14T06:33:11.225Z,0
2016-12-14T06:34:11.366Z,0
2016-12-14T06:35:11.309Z,0
2016-12-14T06:36:11.127Z,0
2016-12-14T06:37:11.244Z,0
2016-12-14T06:38:11.195Z,0
2016-12-14T06:39:11.228Z,0
2016-12-14T06:40:11.360Z,0
2016-12-14T06:41:11.128Z,0
2016-12-14T06:42:11.206Z,0
2016-12-14T06:43:11.146Z,0
2016-12-14T06:44:11.429Z,0
2016-12-14T06:45:11.195Z,0
2016-12-14T06:46:12.341Z,0
2016-12-14T06:47:11.166Z,0
2016-12-14T06:48:11.427Z,0
2016-12-14T06:49:11.234Z,0
2016-12-14T06:50:11.275Z,0
2016-12-14T06:51:11.193Z,0
2016-12-14T06:52:11.326Z,0
2016-12-14T06:53:11.256Z,0
2016-12-14T06:54:11.346Z,0
2016-12-14T06:55:11.287Z,0
2016-12-14T06:56:11.425Z,0
2016-12-14T06:57:11.216Z,0
2016-12-14T06:58:11.214Z,0
2016-12-14T06:59:11.842Z,0
2016-12-14T07:00:11.368Z,0
2016-12-14T07:01:11.449Z,0
2016-12-14T07:02:11.436Z,0
2016-12-14T07:03:11.355Z,0
2016-12-14T07:04:11.297Z,0
2016-12-14T07:05:11.317Z,0
2016-12-14T07:06:11.404Z,0
2016-12-14T07:07:11.486Z,0
2016-12-14T07:08:11.232Z,0
2016-12-14T07:09:11.239Z,0
2016-12-14T07:10:11.186Z,0
2016-12-14T07:11:11.268Z,0
2016-12-14T07:12:11.175Z,0
2016-12-14T07:13:11.432Z,0
2016-12-14T07:14:11.495Z,0
2016-12-14T07:15:11.238Z,0
2016-12-14T07:16:11.314Z,0
2016-12-14T07:17:11.218Z,0
2016-12-14T07:18:11.364Z,0
2016-12-14T07:19:11.225Z,0
2016-12-14T07:20:11.206Z,0
2016-12-14T07:21:11.240Z,0
2016-12-14T07:22:11.359Z,0
2016-12-14T07:23:11.249Z,0
2016-12-14T07:24:11.367Z,0
2016-12-14T07:25:11.347Z,0
2016-12-14T07:26:11.320Z,0
2016-12-14T07:27:11.141Z,0
2016-12-14T07:28:11.344Z,5
2016-12-14T07:29:11.318Z,5
2016-12-14T07:30:11.425Z,5
2016-12-14T07:31:11.345Z,5
2016-12-14T07:32:11.267Z,5
2016-12-14T07:33:11.315Z,5
2016-12-14T07:34:11.365Z,5
2016-12-14T07:35:11.337Z,5
2016-12-14T07:36:11.374Z,10
2016-12-14T07:37:11.239Z,10
2016-12-14T07:38:11.397Z,10
2016-12-14T07:39:11.274Z,10
2016-12-14T07:40:11.481Z,15
2016-12-14T07:41:11.284Z,15
2016-12-14T07:42:11.415Z,15
2016-12-14T07:43:14.338Z,15
2016-12-14T07:44:13.108Z,20
2016-12-14T07:45:11.829Z,20
2016-12-14T07:46:11.366Z,25
2016-12-14T07:47:11.408Z,25
2016-12-14T07:48:11.408Z,25
2016-12-14T07:49:11.306Z,30
2016-12-14T07:50:11.343Z,30
2016-12-14T07:51:11.375Z,30
2016-12-14T07:52:11.608Z,25
2016-12-14T07:53:12.786Z,25
2016-12-14T07:54:11.940Z,25
2016-12-14T07:55:11.781Z,25
2016-12-14T07:56:11.615Z,25
2016-12-14T07:57:12.764Z,25
2016-12-14T07:58:12.959Z,30
2016-12-14T07:59:13.236Z,30
2016-12-14T08:00:13.939Z,30
2016-12-14T08:01:14.964Z,30
2016-12-14T08:02:16.797Z,25
2016-12-14T08:03:15.505Z,25
2016-12-14T08:04:15.538Z,25
2016-12-14T08:05:16.946Z,25
2016-12-14T08:06:15.242Z,25
2016-12-14T08:07:15.057Z,25
2016-12-14T08:08:15.159Z,30
2016-12-14T08:09:16.364Z,30
2016-12-14T08:10:15.841Z,30
2016-12-14T08:11:15.306Z,30
2016-12-14T08:12:15.216Z,30
2016-12-14T08:13:14.855Z,30
2016-12-14T08:14:15.108Z,30
2016-12-14T08:15:15.792Z,30
2016-12-14T08:16:14.987Z,35
2016-12-14T08:17:15.096Z,35
2016-12-14T08:18:14.862Z,40
2016-12-14T08:19:14.907Z,40
2016-12-14T08:20:17.020Z,45
2016-12-14T08:21:14.996Z,50
2016-12-14T08:22:14.845Z,50
2016-12-14T08:23:14.939Z,50
2016-12-14T08:24:15.052Z,45
2016-12-14T08:25:14.912Z,45
2016-12-14T08:26:14.886Z,45
2016-12-14T08:27:15.015Z,45
2016-12-14T08:28:14.858Z,45
2016-12-14T08:29:14.783Z,45
2016-12-14T08:30:15.026Z,45
2016-12-14T08:31:15.206Z,45
2016-12-14T08:32:14.935Z,45
2016-12-14T08:33:15.711Z,45
2016-12-14T08:34:14.907Z,45
2016-12-14T08:35:15.135Z,50
2016-12-14T08:36:15.086Z,50
2016-12-14T08:37:15.899Z,55
2016-12-14T08:38:16.606Z,50
2016-12-14T08:39:14.676Z,55
2016-12-14T08:40:15.187Z,55
2016-12-14T08:41:14.780Z,55
2016-12-14T08:42:15.005Z,55
2016-12-14T08:43:14.860Z,60
2016-12-14T08:44:14.856Z,60
2016-12-14T08:45:14.825Z,65
2016-12-14T08:46:14.799Z,65
2016-12-14T08:47:15.488Z,65
2016-12-14T08:48:14.975Z,70
2016-12-14T08:49:14.877Z,70
2016-12-14T08:50:15.163Z,70
2016-12-14T08:51:15.433Z,75
2016-12-14T08:52:15.907Z,80
2016-12-14T08:53:15.781Z,80
2016-12-14T08:54:15.036Z,80
2016-12-14T08:55:15.075Z,80
2016-12-14T08:56:15.538Z,80
2016-12-14T08:57:14.956Z,85
2016-12-14T08:58:16.133Z,85
2016-12-14T08:59:14.875Z,90
2016-12-14T09:00:14.920Z,90
2016-12-14T09:01:14.887Z,90
2016-12-14T09:02:15.942Z,90
2016-12-14T09:03:14.913Z,90
2016-12-14T09:04:14.992Z,90
2016-12-14T09:05:14.925Z,90
2016-12-14T09:06:15.133Z,90
2016-12-14T09:07:14.868Z,90
2016-12-14T09:08:14.938Z,100
2016-12-14T09:09:15.125Z,95
2016-12-14T09:10:14.914Z,100
2016-12-14T09:11:15.055Z,100
2016-12-14T09:12:15.515Z,100
2016-12-14T09:13:15.472Z,105
2016-12-14T09:14:15.036Z,115
2016-12-14T09:15:14.773Z,120
2016-12-14T09:16:14.897Z,125
2016-12-14T09:17:14.408Z,130
2016-12-14T09:18:15.586Z,135
2016-12-14T09:19:15.187Z,145
2016-12-14T09:20:14.975Z,165
2016-12-14T09:21:14.262Z,170
2016-12-14T09:22:14.408Z,175
2016-12-14T09:23:14.645Z,175
2016-12-14T09:24:14.591Z,175
2016-12-14T09:25:14.534Z,180
2016-12-14T09:26:14.132Z,180
2016-12-14T09:27:14.587Z,185
2016-12-14T09:28:14.421Z,210
2016-12-14T09:29:13.921Z,240
2016-12-14T09:30:13.993Z,265
2016-12-14T09:31:14.250Z,280
2016-12-14T09:32:13.175Z,305
2016-12-14T09:33:13.173Z,340
2016-12-14T09:34:13.062Z,375
2016-12-14T09:35:13.315Z,365
2016-12-14T09:36:12.979Z,350
2016-12-14T09:37:12.204Z,370
2016-12-14T09:38:12.681Z,400
2016-12-14T09:39:12.009Z,370
2016-12-14T09:40:12.374Z,340
2016-12-14T09:41:13.483Z,335
2016-12-14T09:42:12.036Z,360
2016-12-14T09:43:11.961Z,385
2016-12-14T09:44:12.430Z,390
2016-12-14T09:45:11.881Z,400
2016-12-14T09:46:11.573Z,450
2016-12-14T09:47:11.924Z,470
2016-12-14T09:48:12.300Z,480
2016-12-14T09:49:12.094Z,460
2016-12-14T09:50:11.622Z,415
2016-12-14T09:51:12.268Z,345
2016-12-14T09:52:12.877Z,345
2016-12-14T09:53:12.659Z,380
2016-12-14T09:54:13.045Z,345
2016-12-14T09:55:13.454Z,295
2016-12-14T09:56:12.525Z,275
2016-12-14T09:57:12.463Z,275
2016-12-14T09:58:12.532Z,280
2016-12-14T09:59:13.195Z,305
2016-12-14T10:00:12.806Z,350
2016-12-14T10:01:14.285Z,370
2016-12-14T10:02:15.495Z,415
2016-12-14T10:03:15.656Z,510
2016-12-14T10:04:12.844Z,610
2016-12-14T10:05:12.553Z,645
2016-12-14T10:06:12.776Z,585
2016-12-14T10:07:12.715Z,445
2016-12-14T10:08:12.849Z,380
2016-12-14T10:09:12.456Z,385
2016-12-14T10:10:12.722Z,340
2016-12-14T10:11:12.416Z,305
2016-12-14T10:12:12.454Z,320
2016-12-14T10:13:11.905Z,390
2016-12-14T10:14:11.953Z,425
2016-12-14T10:15:11.877Z,395
2016-12-14T10:16:12.705Z,370
2016-12-14T10:17:12.147Z,350
2016-12-14T10:18:11.905Z,350
2016-12-14T10:19:12.432Z,345
2016-12-14T10:20:11.572Z,315
2016-12-14T10:21:11.857Z,285
2016-12-14T10:22:11.906Z,270
2016-12-14T10:23:12.599Z,270
2016-12-14T10:24:12.051Z,270
2016-12-14T10:25:12.408Z,265
2016-12-14T10:26:12.309Z,260
2016-12-14T10:27:11.934Z,260
2016-12-14T10:28:11.945Z,255
2016-12-14T10:29:11.860Z,255
2016-12-14T10:30:12.020Z,255
2016-12-14T10:31:11.747Z,265
2016-12-14T10:32:12.060Z,295
2016-12-14T10:33:12.006Z,315
2016-12-14T10:34:12.659Z,315
2016-12-14T10:35:12.738Z,300
2016-12-14T10:36:12.545Z,295
2016-12-14T10:37:13.378Z,300
2016-12-14T10:38:13.217Z,310
2016-12-14T10:39:12.861Z,315
2016-12-14T10:40:13.586Z,295
2016-12-14T10:41:12.705Z,305
2016-12-14T10:42:13.514Z,330
2016-12-14T10:43:13.937Z,390
2016-12-14T10:44:12.631Z,450
2016-12-14T10:45:12.468Z,470
2016-12-14T10:46:12.045Z,475
2016-12-14T10:47:12.590Z,495
2016-12-14T10:48:13.510Z,510
2016-12-14T10:49:13.308Z,485
2016-12-14T10:50:12.762Z,420
2016-12-14T10:51:13.134Z,370
2016-12-14T10:52:14.127Z,350
2016-12-14T10:53:14.359Z,345
2016-12-14T10:54:14.629Z,330
2016-12-14T10:55:14.496Z,300
2016-12-14T10:56:14.782Z,300
2016-12-14T10:57:14.854Z,320
2016-12-14T10:58:14.769Z,335
2016-12-14T10:59:14.673Z,355
2016-12-14T11:00:14.897Z,375
2016-12-14T11:01:14.799Z,400
2016-12-14T11:02:14.894Z,445
2016-12-14T11:03:15.095Z,515
2016-12-14T11:04:15.182Z,590
2016-12-14T11:05:15.070Z,650
2016-12-14T11:06:14.850Z,670
2016-12-14T11:07:14.902Z,670
2016-12-14T11:08:15.067Z,660
2016-12-14T11:09:14.666Z,645
2016-12-14T11:10:15.221Z,645
2016-12-14T11:11:17.555Z,730
2016-12-14T11:12:14.916Z,710
2016-12-14T11:13:14.757Z,685
2016-12-14T11:14:14.768Z,680
2016-12-14T11:15:14.879Z,680
2016-12-14T11:16:14.807Z,635
2016-12-14T11:17:14.507Z,635
2016-12-14T11:18:14.567Z,720
2016-12-14T11:19:14.373Z,735
2016-12-14T11:20:14.603Z,775
2016-12-14T11:21:14.487Z,790
2016-12-14T11:22:13.900Z,790
2016-12-14T11:23:13.932Z,770
2016-12-14T11:24:13.916Z,765
2016-12-14T11:25:13.385Z,745
2016-12-14T11:26:12.775Z,715
2016-12-14T11:27:12.690Z,680
2016-12-14T11:28:13.328Z,690
2016-12-14T11:29:12.730Z,720
2016-12-14T11:30:13.992Z,715
2016-12-14T11:31:12.266Z,690
2016-12-14T11:32:13.288Z,660
2016-12-14T11:33:12.165Z,615
2016-12-14T11:34:11.949Z,590
2016-12-14T11:35:12.428Z,560
2016-12-14T11:36:12.361Z,530
2016-12-14T11:37:12.295Z,510
2016-12-14T11:38:12.308Z,505
2016-12-14T11:39:11.835Z,520
2016-12-14T11:40:11.984Z,545
2016-12-14T11:41:12.047Z,565
2016-12-14T11:42:12.878Z,585
2016-12-14T11:43:12.248Z,595
2016-12-14T11:44:12.745Z,580
2016-12-14T11:45:11.866Z,550
2016-12-14T11:46:11.773Z,510
2016-12-14T11:47:11.973Z,475
2016-12-14T11:48:11.820Z,455
2016-12-14T11:49:11.772Z,450
2016-12-14T11:50:11.648Z,445
2016-12-14T11:51:11.767Z,425
2016-12-14T11:52:11.868Z,400
2016-12-14T11:53:11.637Z,370
2016-12-14T11:54:12.027Z,350
2016-12-14T11:55:11.619Z,345
2016-12-14T11:56:11.699Z,360
2016-12-14T11:57:11.738Z,390
2016-12-14T11:58:11.718Z,435
2016-12-14T11:59:11.691Z,460
2016-12-14T12:00:11.916Z,465
2016-12-14T12:01:11.681Z,460
2016-12-14T12:02:11.634Z,460
2016-12-14T12:03:11.790Z,455
2016-12-14T12:04:11.723Z,470
2016-12-14T12:05:11.842Z,495
2016-12-14T12:06:11.729Z,500
2016-12-14T12:07:11.628Z,490
2016-12-14T12:08:11.676Z,475
2016-12-14T12:09:11.897Z,460
2016-12-14T12:10:11.828Z,450
2016-12-14T12:11:11.679Z,450
2016-12-14T12:12:11.681Z,450
2016-12-14T12:13:11.698Z,460
2016-12-14T12:14:11.831Z,470
2016-12-14T12:15:11.659Z,480
2016-12-14T12:16:11.617Z,490
2016-12-14T12:17:11.828Z,485
2016-12-14T12:18:11.736Z,490
2016-12-14T12:19:11.617Z,485
2016-12-14T12:20:11.718Z,480
2016-12-14T12:21:11.601Z,480
2016-12-14T12:22:11.716Z,480
2016-12-14T12:23:11.748Z,475
2016-12-14T12:24:11.869Z,475
2016-12-14T12:25:11.735Z,475
2016-12-14T12:26:11.644Z,475
2016-12-14T12:27:11.757Z,480
2016-12-14T12:28:11.668Z,485
2016-12-14T12:29:11.857Z,490
2016-12-14T12:30:11.748Z,505
2016-12-14T12:31:11.732Z,515
2016-12-14T12:32:11.695Z,525
2016-12-14T12:33:11.940Z,535
2016-12-14T12:34:11.702Z,535
2016-12-14T12:35:11.704Z,525
2016-12-14T12:36:11.658Z,520
2016-12-14T12:37:11.769Z,530
2016-12-14T12:38:13.542Z,530
2016-12-14T12:39:11.639Z,545
2016-12-14T12:40:11.709Z,540
2016-12-14T12:41:11.841Z,525
2016-12-14T12:42:11.689Z,505
2016-12-14T12:43:11.617Z,490
2016-12-14T12:44:11.869Z,475
2016-12-14T12:45:11.765Z,460
2016-12-14T12:46:11.688Z,445
2016-12-14T12:47:11.766Z,425
2016-12-14T12:48:11.878Z,405
2016-12-14T12:49:11.771Z,395
2016-12-14T12:50:12.638Z,375
2016-12-14T12:51:11.810Z,370
2016-12-14T12:52:11.668Z,365
2016-12-14T12:53:11.743Z,365
2016-12-14T12:54:11.800Z,365
2016-12-14T12:55:11.708Z,360
2016-12-14T12:56:12.159Z,365
2016-12-14T12:57:11.869Z,365
2016-12-14T12:58:11.749Z,365
2016-12-14T12:59:11.879Z,365
2016-12-14T13:00:11.880Z,365
2016-12-14T13:01:11.747Z,360
2016-12-14T13:02:13.607Z,355
2016-12-14T13:03:11.904Z,355
2016-12-14T13:04:11.740Z,355
2016-12-14T13:09:29.528Z,335
2016-12-14T13:09:40.798Z,335
2016-12-14T13:10:40.988Z,335
2016-12-14T13:11:40.755Z,335
2016-12-14T13:12:41.000Z,335
2016-12-14T13:13:40.845Z,330
2016-12-14T13:14:41.178Z,335
2016-12-14T13:15:40.869Z,330
2016-12-14T13:16:41.025Z,335
2016-12-14T13:17:40.787Z,325
2016-12-14T13:18:41.395Z,320
2016-12-14T13:19:40.817Z,320
2016-12-14T13:20:41.000Z,315
2016-12-14T13:21:40.771Z,310
2016-12-14T13:22:40.955Z,305
2016-12-14T13:23:41.031Z,305
2016-12-14T13:24:41.009Z,300
2016-12-14T13:25:40.959Z,295
2016-12-14T13:26:40.842Z,295
2016-12-14T13:27:40.914Z,295
2016-12-14T13:28:41.048Z,295
2016-12-14T13:29:40.886Z,295
2016-12-14T13:30:41.049Z,290
2016-12-14T13:31:40.936Z,290
2016-12-14T13:32:41.088Z,285
2016-12-14T13:33:42.185Z,280
2016-12-14T13:34:41.028Z,275
2016-12-14T13:35:40.888Z,270
2016-12-14T13:36:40.973Z,270
2016-12-14T13:37:40.794Z,265
2016-12-14T13:38:40.885Z,260
2016-12-14T13:39:40.835Z,255
2016-12-14T13:40:41.042Z,250
2016-12-14T13:41:40.925Z,250
2016-12-14T13:42:41.277Z,250
2016-12-14T13:43:41.054Z,245
2016-12-14T13:44:41.055Z,240
2016-12-14T13:45:44.076Z,240
2016-12-14T13:46:41.324Z,235
2016-12-14T13:47:40.915Z,235
2016-12-14T13:48:41.050Z,235
2016-12-14T13:49:40.822Z,235
2016-12-14T13:50:41.017Z,235
2016-12-14T13:51:40.863Z,230
2016-12-14T13:52:40.999Z,225
2016-12-14T13:53:40.894Z,225
2016-12-14T13:54:40.921Z,220
2016-12-14T13:55:43.887Z,220
2016-12-14T13:56:41.025Z,215
2016-12-14T13:57:40.836Z,215
2016-12-14T13:58:41.047Z,210
2016-12-14T13:59:40.924Z,205
2016-12-14T14:00:41.235Z,205
2016-12-14T14:01:40.808Z,205
2016-12-14T14:02:41.019Z,205
2016-12-14T14:03:40.914Z,205
2016-12-14T14:04:40.770Z,205
2016-12-14T14:05:40.786Z,200
2016-12-14T14:06:41.645Z,200
2016-12-14T14:07:40.802Z,200
2016-12-14T14:08:40.965Z,200
2016-12-14T14:09:40.886Z,195
2016-12-14T14:10:41.066Z,190
2016-12-14T14:11:40.874Z,185
2016-12-14T14:12:41.110Z,180
2016-12-14T14:13:41.006Z,175
2016-12-14T14:14:41.028Z,175
2016-12-14T14:15:41.514Z,170
2016-12-14T14:16:40.867Z,170
2016-12-14T14:17:40.923Z,165
2016-12-14T14:18:40.838Z,160
2016-12-14T14:19:40.825Z,155
2016-12-14T14:20:41.086Z,150
2016-12-14T14:21:40.973Z,145
2016-12-14T14:22:41.133Z,145
2016-12-14T14:23:40.844Z,145